createdAt,value
2019-05-21T00:00:52.320Z,6.40
2019-05-21T00:03:42.252Z,6.47
2019-05-21T00:06:32.134Z,7.00
2019-05-21T00:09:21.911Z,6.40
2019-05-21T00:12:11.717Z,6.40
2019-05-21T00:15:01.537Z,6.70
2019-05-21T00:17:51.413Z,6.00
2019-05-21T00:20:41.181Z,7.27
2019-05-21T00:23:31.019Z,6.40
2019-05-21T00:26:32.860Z,6.50
2019-05-21T00:29:43.568Z,7.00
2019-05-21T00:32:53.487Z,6.63
2019-05-21T00:36:23.055Z,7.83
2019-05-21T00:39:31.569Z,7.00
2019-05-21T00:45:31.481Z,8.30
2019-05-21T00:48:21.659Z,7.80
2019-05-21T00:51:11.491Z,8.97
2019-05-21T00:54:01.310Z,8.10
2019-05-21T00:56:51.227Z,7.97
2019-05-21T00:59:41.114Z,6.90
2019-05-21T01:02:11.606Z,8.00
2019-05-21T01:08:04.759Z,8.70
2019-05-21T01:10:54.589Z,8.30
2019-05-21T01:13:44.414Z,8.00
2019-05-21T01:16:34.358Z,8.17
2019-05-21T01:19:04.825Z,9.60
2019-05-21T01:21:54.658Z,8.53
2019-05-21T01:24:44.437Z,8.20
2019-05-21T01:27:34.310Z,8.00
2019-05-21T01:30:24.196Z,8.20
2019-05-21T01:33:14.347Z,8.63
2019-05-21T01:35:44.763Z,8.10
2019-05-21T01:38:34.529Z,8.00
2019-05-21T01:41:24.887Z,7.57
2019-05-21T01:44:14.698Z,7.90
2019-05-21T01:47:23.665Z,8.43
2019-05-21T01:49:55.778Z,8.00
2019-05-21T01:52:45.616Z,8.77
2019-05-21T01:55:35.791Z,9.23
2019-05-21T01:58:25.665Z,8.93
2019-05-21T02:01:15.508Z,9.30
2019-05-21T02:04:05.455Z,7.60
2019-05-21T02:06:55.632Z,8.80
2019-05-21T02:09:27.779Z,8.20
2019-05-21T02:12:17.638Z,7.90
2019-05-21T02:18:11.051Z,8.10
2019-05-21T02:20:41.518Z,7.60
2019-05-21T02:23:31.404Z,7.93
2019-05-21T02:26:21.169Z,8.03
2019-05-21T02:29:11.003Z,8.17
2019-05-21T02:32:00.841Z,8.63
2019-05-21T02:34:50.717Z,8.30
2019-05-21T02:37:40.490Z,9.67
2019-05-21T02:43:14.117Z,9.43
2019-05-21T02:46:03.917Z,9.10
2019-05-21T02:48:53.753Z,10.00
2019-05-21T02:51:43.517Z,8.93
2019-05-21T02:54:40.725Z,8.53
2019-05-21T02:57:16.337Z,7.93
2019-05-21T03:05:47.435Z,7.37
2019-05-21T03:08:37.238Z,6.50
2019-05-21T03:11:27.086Z,7.80
2019-05-21T03:14:16.877Z,8.50
2019-05-21T03:17:06.754Z,7.70
2019-05-21T03:19:56.529Z,7.23
2019-05-21T03:22:46.351Z,6.97
2019-05-21T03:25:36.273Z,7.70
2019-05-21T03:28:26.161Z,7.60
2019-05-21T03:31:15.975Z,8.07
2019-05-21T03:34:05.830Z,7.27
2019-05-21T03:36:36.400Z,8.00
2019-05-21T03:39:26.238Z,7.67
2019-05-21T03:42:16.091Z,7.27
2019-05-21T03:45:07.769Z,7.43
2019-05-21T03:47:49.312Z,7.30
2019-05-21T03:50:39.111Z,6.83
2019-05-21T03:53:28.876Z,7.10
2019-05-21T03:56:18.645Z,6.63
2019-05-21T03:59:08.402Z,7.80
2019-05-21T04:01:58.216Z,6.77
2019-05-21T04:04:28.610Z,6.07
2019-05-21T04:07:18.415Z,6.60
2019-05-21T04:10:35.491Z,6.50
2019-05-21T04:13:25.389Z,5.63
2019-05-21T04:16:34.079Z,5.30
2019-05-21T04:19:16.753Z,5.83
2019-05-21T04:25:31.047Z,5.40
2019-05-21T04:28:20.851Z,6.17
2019-05-21T04:31:10.749Z,5.27
2019-05-21T04:34:00.502Z,5.40
2019-05-21T04:36:50.330Z,5.17
2019-05-21T04:39:40.137Z,6.70
2019-05-21T04:42:29.967Z,5.57
2019-05-21T04:45:19.754Z,5.40
2019-05-21T04:48:09.619Z,5.00
2019-05-21T04:50:59.459Z,4.80
2019-05-21T04:53:48.584Z,5.63
2019-05-21T04:56:39.308Z,5.70
2019-05-21T04:59:29.100Z,4.80
2019-05-21T05:02:18.895Z,5.10
2019-05-21T05:05:08.698Z,5.17
2019-05-21T05:07:58.509Z,5.27
2019-05-21T05:10:49.419Z,4.80
2019-05-21T05:13:31.406Z,5.13
2019-05-21T05:16:21.234Z,5.80
2019-05-21T05:19:11.081Z,5.10
2019-05-21T05:22:00.877Z,5.30
2019-05-21T05:24:50.732Z,5.80
2019-05-21T05:30:45.840Z,5.60
2019-05-21T05:33:35.638Z,4.90
2019-05-21T05:36:25.498Z,4.97
2019-05-21T05:39:15.444Z,5.50
2019-05-21T05:42:05.196Z,7.63
2019-05-21T05:44:55.014Z,7.47
2019-05-21T05:47:44.873Z,6.67
2019-05-21T05:53:19.490Z,8.90
2019-05-21T05:56:09.349Z,6.50
2019-05-21T05:58:59.290Z,5.40
2019-05-21T06:04:13.922Z,5.73
2019-05-21T06:07:03.783Z,6.10
2019-05-21T06:09:53.650Z,5.50
2019-05-21T06:12:25.796Z,6.87
2019-05-21T06:15:15.825Z,6.07
2019-05-21T06:18:05.641Z,5.33
2019-05-21T06:20:55.451Z,5.13
2019-05-21T06:23:45.225Z,5.43
2019-05-21T06:26:35.041Z,5.70
2019-05-21T06:29:24.828Z,5.50
2019-05-21T06:32:14.695Z,5.83
2019-05-21T06:35:04.602Z,5.93
2019-05-21T06:37:54.440Z,5.73
2019-05-21T06:40:44.370Z,5.77
2019-05-21T06:43:14.953Z,6.50
2019-05-21T06:46:04.733Z,5.63
2019-05-21T06:48:35.221Z,5.87
2019-05-21T06:51:24.961Z,6.30
2019-05-21T06:54:14.779Z,6.13
2019-05-21T06:56:45.191Z,6.37
2019-05-21T06:59:34.973Z,5.67
2019-05-21T07:02:05.483Z,6.20
2019-05-21T07:04:37.494Z,5.87
2019-05-21T07:07:27.357Z,6.90
2019-05-21T07:10:17.123Z,6.87
2019-05-21T07:13:06.952Z,6.73
2019-05-21T07:15:56.774Z,6.70
2019-05-21T07:18:46.539Z,5.93
2019-05-21T07:21:36.367Z,7.13
2019-05-21T07:24:28.331Z,6.67
2019-05-21T07:27:09.071Z,6.20
2019-05-21T07:33:05.731Z,6.50
2019-05-21T07:35:56.788Z,5.30
2019-05-21T07:38:53.454Z,6.10
2019-05-21T07:41:29.390Z,5.50
2019-05-21T07:44:19.170Z,5.80
2019-05-21T07:47:09.048Z,4.47
2019-05-21T07:49:58.851Z,4.80
2019-05-21T07:52:48.687Z,4.50
2019-05-21T07:55:38.496Z,4.30
2019-05-21T07:58:08.924Z,4.07
2019-05-21T08:01:01.219Z,3.23
2019-05-21T08:03:50.200Z,3.50
2019-05-21T08:06:40.005Z,3.27
2019-05-21T08:09:29.745Z,1.87
2019-05-21T08:12:37.502Z,2.30
2019-05-21T08:18:40.217Z,3.30
2019-05-21T08:21:29.996Z,3.40
2019-05-21T08:24:19.786Z,3.50
2019-05-21T08:27:09.574Z,3.93
2019-05-21T08:30:18.378Z,3.87
2019-05-21T08:33:08.150Z,3.57
2019-05-21T08:35:57.948Z,3.57
2019-05-21T08:38:47.788Z,3.70
2019-05-21T08:41:19.793Z,4.07
2019-05-21T08:44:09.673Z,3.40
2019-05-21T08:46:59.444Z,3.70
2019-05-21T08:49:49.291Z,3.30
2019-05-21T08:52:39.072Z,2.93
2019-05-21T08:55:28.890Z,3.37
2019-05-21T08:58:18.707Z,3.10
2019-05-21T09:01:08.421Z,3.57
2019-05-21T09:03:38.841Z,2.90
2019-05-21T09:06:09.254Z,2.17
2019-05-21T09:08:59.063Z,2.87
2019-05-21T09:11:48.903Z,2.80
2019-05-21T09:14:38.671Z,2.73
2019-05-21T09:17:09.073Z,3.60
2019-05-21T09:19:58.910Z,4.17
2019-05-21T09:22:48.663Z,4.57
2019-05-21T09:25:38.514Z,4.50
2019-05-21T09:28:09.003Z,3.60
2019-05-21T09:31:01.609Z,4.07
2019-05-21T09:33:50.308Z,3.90
2019-05-21T09:36:40.161Z,3.77
2019-05-21T09:39:29.974Z,3.50
2019-05-21T09:42:19.746Z,3.57
2019-05-21T09:48:14.973Z,2.50
2019-05-21T09:51:04.765Z,2.33
2019-05-21T09:53:35.232Z,2.27
2019-05-21T09:59:49.774Z,1.80
2019-05-21T10:02:51.546Z,2.10
2019-05-21T10:05:24.128Z,1.57
2019-05-21T10:08:13.905Z,1.00
2019-05-21T10:11:03.885Z,1.00
2019-05-21T10:16:58.650Z,1.13
2019-05-21T10:19:48.488Z,1.20
2019-05-21T10:22:19.147Z,1.10
2019-05-21T10:25:09.008Z,0.97
2019-05-21T10:27:58.873Z,0.93
2019-05-21T10:30:48.621Z,0.70
2019-05-21T10:33:38.428Z,0.70
2019-05-21T10:36:08.900Z,0.67
2019-05-21T10:38:58.711Z,1.27
2019-05-21T10:41:48.477Z,0.80
2019-05-21T10:44:38.277Z,1.30
2019-05-21T10:47:08.787Z,1.00
2019-05-21T10:49:58.625Z,1.20
2019-05-21T10:52:48.434Z,0.90
2019-05-21T10:55:38.250Z,0.90
2019-05-21T10:58:08.736Z,0.80
2019-05-21T11:04:20.098Z,1.07
2019-05-21T11:07:11.628Z,0.80
2019-05-21T11:10:01.467Z,0.70
2019-05-21T11:12:51.291Z,0.73
2019-05-21T11:15:41.133Z,0.73
2019-05-21T11:18:31.009Z,0.70
2019-05-21T11:24:08.460Z,0.90
2019-05-21T11:30:00.503Z,0.80
2019-05-21T11:32:32.501Z,0.87
2019-05-21T11:35:22.433Z,0.70
2019-05-21T11:38:12.216Z,1.00
2019-05-21T11:41:02.082Z,1.27
2019-05-21T11:43:51.867Z,1.20
2019-05-21T11:46:41.719Z,0.80
2019-05-21T11:49:31.561Z,0.63
2019-05-21T11:52:21.361Z,0.50
2019-05-21T11:55:11.224Z,0.80
2019-05-21T11:57:41.870Z,0.60
2019-05-21T12:00:31.774Z,0.80
2019-05-21T12:03:21.636Z,0.80
2019-05-21T12:06:11.484Z,0.80
2019-05-21T12:09:02.197Z,1.00
2019-05-21T12:11:52.024Z,0.80
2019-05-21T12:15:00.905Z,0.97
2019-05-21T12:17:50.701Z,0.80
2019-05-21T12:23:27.191Z,0.83
2019-05-21T12:26:17.048Z,0.90
2019-05-21T12:29:06.827Z,0.97
2019-05-21T12:31:56.600Z,1.10
2019-05-21T12:34:28.618Z,1.10
2019-05-21T12:37:18.457Z,0.60
2019-05-21T12:43:11.839Z,0.73
2019-05-21T12:46:01.660Z,0.70
2019-05-21T12:48:51.432Z,1.00
2019-05-21T12:51:41.259Z,0.77
2019-05-21T12:54:31.142Z,1.00
2019-05-21T12:57:20.916Z,0.80
2019-05-21T13:03:15.040Z,0.80
2019-05-21T13:06:04.777Z,0.70
2019-05-21T13:08:54.615Z,0.87
2019-05-21T13:11:44.404Z,0.63
2019-05-21T13:14:34.251Z,0.80
2019-05-21T13:17:24.044Z,0.73
2019-05-21T13:23:18.195Z,0.50
2019-05-21T13:26:08.769Z,0.87
2019-05-21T13:28:50.871Z,0.67
2019-05-21T13:31:40.650Z,1.60
2019-05-21T13:34:30.561Z,0.90
2019-05-21T13:37:00.993Z,0.70
2019-05-21T13:39:51.205Z,1.60
2019-05-21T13:42:41.020Z,0.53
2019-05-21T13:45:30.839Z,1.30
2019-05-21T13:48:20.727Z,0.80
2019-05-21T13:51:10.589Z,0.53
2019-05-21T13:54:00.369Z,1.07
2019-05-21T13:56:50.251Z,0.70
2019-05-21T13:59:40.077Z,0.90
2019-05-21T14:02:30.062Z,0.80
2019-05-21T14:08:03.516Z,1.20
2019-05-21T14:10:53.672Z,0.67
2019-05-21T14:13:43.510Z,0.60
2019-05-21T14:16:34.885Z,0.60
2019-05-21T14:19:18.272Z,0.70
2019-05-21T14:22:08.499Z,0.67
2019-05-21T14:24:58.268Z,0.70
2019-05-21T14:27:43.151Z,0.90
2019-05-21T14:30:20.318Z,1.00
2019-05-21T14:33:10.209Z,0.90
2019-05-21T14:35:59.962Z,1.10
2019-05-21T14:38:30.414Z,0.90
2019-05-21T14:41:20.163Z,1.00
2019-05-21T14:44:09.959Z,0.80
2019-05-21T14:46:59.734Z,0.80
2019-05-21T14:49:49.594Z,0.90
2019-05-21T14:52:39.377Z,0.97
2019-05-21T14:55:11.450Z,0.60
2019-05-21T14:58:01.223Z,0.80
2019-05-21T15:00:51.165Z,0.90
2019-05-21T15:03:25.267Z,0.80
2019-05-21T15:06:04.536Z,0.70
2019-05-21T15:08:54.388Z,0.70
2019-05-21T15:11:44.221Z,0.83
2019-05-21T15:14:34.012Z,0.70
2019-05-21T15:17:23.875Z,0.80
2019-05-21T15:23:18.618Z,0.70
2019-05-21T15:26:08.476Z,0.60
2019-05-21T15:28:58.318Z,0.60
2019-05-21T15:31:48.188Z,0.80
2019-05-21T15:34:18.589Z,0.60
2019-05-21T15:37:08.346Z,0.70
2019-05-21T15:39:58.181Z,0.70
2019-05-21T15:42:52.819Z,0.93
2019-05-21T15:45:30.788Z,0.70
2019-05-21T15:48:20.618Z,0.80
2019-05-21T15:51:10.472Z,0.43
2019-05-21T15:54:00.265Z,1.00
2019-05-21T15:56:50.091Z,1.40
2019-05-21T15:59:39.906Z,1.27
2019-05-21T16:02:41.819Z,2.27
2019-05-21T16:05:12.865Z,0.60
2019-05-21T16:08:02.382Z,0.70
2019-05-21T16:10:53.126Z,0.70
2019-05-21T16:13:42.981Z,0.60
2019-05-21T16:16:32.816Z,0.60
2019-05-21T16:19:22.723Z,0.70
2019-05-21T16:22:12.553Z,0.60
2019-05-21T16:25:02.449Z,0.70
2019-05-21T16:27:52.398Z,1.00
2019-05-21T16:30:23.157Z,0.73
2019-05-21T16:33:12.960Z,1.00
2019-05-21T16:36:02.793Z,0.90
2019-05-21T16:38:52.731Z,0.80
2019-05-21T16:41:45.144Z,0.80
2019-05-21T16:44:34.129Z,0.93
2019-05-21T16:47:24.415Z,1.00
2019-05-21T16:50:15.941Z,1.00
2019-05-21T16:53:05.773Z,0.70
2019-05-21T16:55:55.652Z,1.00
2019-05-21T16:58:45.533Z,0.73
2019-05-21T17:01:36.592Z,0.70
2019-05-21T17:04:26.451Z,0.87
2019-05-21T17:07:16.228Z,1.40
2019-05-21T17:13:09.039Z,0.80
2019-05-21T17:15:58.982Z,1.50
2019-05-21T17:18:48.791Z,2.33
2019-05-21T17:21:38.596Z,1.10
2019-05-21T17:24:09.186Z,0.90
2019-05-21T17:26:59.012Z,1.00
2019-05-21T17:29:29.470Z,0.80
2019-05-21T17:32:19.357Z,1.00
2019-05-21T17:35:09.437Z,1.30
2019-05-21T17:37:59.310Z,0.90
2019-05-21T17:40:49.157Z,0.90
2019-05-21T17:43:38.920Z,1.00
2019-05-21T17:46:09.431Z,0.90
2019-05-21T17:49:13.586Z,0.77
2019-05-21T17:51:42.756Z,0.67
2019-05-21T17:54:33.393Z,0.93
2019-05-21T17:57:23.504Z,0.93
2019-05-21T18:03:18.528Z,1.00
2019-05-21T18:06:08.629Z,1.00
2019-05-21T18:08:58.463Z,0.80
2019-05-21T18:11:28.919Z,1.07
2019-05-21T18:13:59.502Z,1.63
2019-05-21T18:16:49.291Z,1.20
2019-05-21T18:19:39.155Z,1.20
2019-05-21T18:27:50.737Z,0.90
2019-05-21T18:30:40.807Z,1.07
2019-05-21T18:33:30.688Z,0.90
2019-05-21T18:36:20.473Z,0.87
2019-05-21T18:39:10.400Z,0.80
2019-05-21T18:42:00.086Z,0.70
2019-05-21T18:44:49.942Z,1.20
2019-05-21T18:47:39.858Z,0.93
2019-05-21T18:50:36.419Z,1.43
2019-05-21T18:53:13.071Z,0.80
2019-05-21T18:56:02.873Z,0.70
2019-05-21T18:58:52.744Z,1.00
2019-05-21T19:01:42.582Z,0.90
2019-05-21T19:04:32.431Z,1.00
2019-05-21T19:07:22.638Z,0.97
2019-05-21T19:10:12.696Z,1.17
2019-05-21T19:13:02.544Z,0.70
2019-05-21T19:15:52.645Z,0.83
2019-05-21T19:18:42.570Z,0.70
2019-05-21T19:21:32.519Z,0.90
2019-05-21T19:24:22.518Z,0.80
2019-05-21T19:27:12.474Z,0.60
2019-05-21T19:30:02.356Z,0.93
2019-05-21T19:32:52.261Z,0.60
2019-05-21T19:35:47.682Z,0.90
2019-05-21T19:38:37.676Z,0.70
2019-05-21T19:41:44.369Z,0.80
2019-05-21T19:44:34.288Z,0.87
2019-05-21T19:47:24.140Z,0.80
2019-05-21T19:50:14.071Z,0.80
2019-05-21T19:53:03.974Z,0.60
2019-05-21T19:55:53.893Z,1.20
2019-05-21T19:58:43.797Z,0.83
2019-05-21T20:05:03.917Z,0.70
2019-05-21T20:07:53.739Z,0.60
2019-05-21T20:10:43.812Z,0.60
2019-05-21T20:13:33.672Z,0.70
2019-05-21T20:19:07.617Z,0.73
2019-05-21T20:21:57.648Z,0.70
2019-05-21T20:27:25.249Z,0.70
2019-05-21T20:32:59.327Z,1.73
2019-05-21T20:38:53.958Z,0.80
2019-05-21T20:41:44.723Z,0.80
2019-05-21T20:44:34.674Z,0.67
2019-05-21T20:53:19.278Z,1.00
2019-05-21T20:56:24.790Z,0.70
2019-05-21T20:58:53.326Z,1.23
2019-05-21T21:01:43.457Z,0.60
2019-05-21T21:07:16.713Z,0.73
2019-05-21T21:10:07.085Z,0.80
2019-05-21T21:12:56.965Z,0.70
2019-05-21T21:18:30.770Z,0.70
2019-05-21T21:21:01.357Z,0.60
2019-05-21T21:24:30.597Z,0.70
2019-05-21T21:27:20.487Z,1.07
2019-05-21T21:30:10.529Z,0.60
2019-05-21T21:33:01.094Z,0.77
2019-05-21T21:44:42.482Z,0.80
2019-05-21T21:47:32.325Z,0.70
2019-05-21T21:50:34.651Z,0.73
2019-05-21T21:53:06.894Z,0.60
2019-05-21T21:55:56.716Z,0.63
2019-05-21T21:58:46.600Z,0.70
2019-05-21T22:02:03.587Z,0.60
2019-05-21T22:04:53.727Z,0.70
2019-05-21T22:08:02.523Z,0.50
2019-05-21T22:10:52.583Z,1.00
2019-05-21T22:13:42.420Z,0.70
2019-05-21T22:16:32.510Z,0.70
2019-05-21T22:24:50.360Z,0.77
2019-05-21T22:27:51.652Z,0.70
2019-05-21T22:35:54.149Z,0.70
2019-05-21T22:38:43.970Z,0.83
2019-05-21T22:41:34.193Z,0.80
2019-05-21T22:44:24.035Z,0.70
2019-05-21T22:46:54.728Z,0.67
2019-05-21T22:49:44.666Z,0.73
2019-05-21T22:52:34.530Z,0.70
2019-05-21T22:55:24.312Z,0.73
2019-05-21T22:57:54.763Z,0.70
2019-05-21T23:03:41.198Z,0.70
2019-05-21T23:06:31.000Z,0.87
2019-05-21T23:09:21.070Z,1.10
2019-05-21T23:12:11.180Z,0.60
2019-05-21T23:15:00.982Z,0.63
2019-05-21T23:21:14.021Z,0.80
2019-05-21T23:26:47.886Z,0.70
2019-05-21T23:32:22.038Z,0.67
2019-05-21T23:37:56.697Z,0.67
2019-05-21T23:43:31.743Z,0.60
2019-05-21T23:46:21.728Z,0.80
2019-05-21T23:49:11.694Z,1.10
2019-05-21T23:52:01.617Z,0.80
2019-05-21T23:54:51.478Z,0.80
